Time;durP1;ratioP1;P1;durP2;ratioP2;P2;SDS_P1;SDS_P2;PMS_P1;PMS_P2;Temp;Humidity;BMP_temperature;BMP_pressure;BME280_temperature;BME280_humidity;BME280_pressure;Samples;Min_cycle;Max_cycle;Signal;HPM_P1;HPM_P2
2022/01/16 00:04:07;;;;;;;4.80;3.08;;;;;;;;;;5041711;28;20065;-55
2022/01/16 00:06:34;;;;;;;5.35;2.95;;;;;;;;;;5041950;28;20017;-58
2022/01/16 00:08:59;;;;;;;3.75;2.85;;;;;;;;;;5041646;28;20083;-57
2022/01/16 00:11:25;;;;;;;4.60;3.40;;;;;;;;;;5041178;28;20021;-58
2022/01/16 00:13:51;;;;;;;4.45;3.05;;;;;;;;;;5023607;28;20348;-56
2022/01/16 00:16:17;;;;;;;4.60;3.15;;;;;;;;;;5023640;28;20025;-56
2022/01/16 00:18:49;;;;;;;4.85;3.17;;;;;;;;;;5041257;28;20033;-55
2022/01/16 00:21:21;;;;;;;3.92;2.90;;;;;;;;;;5041033;28;20089;-56
2022/01/16 00:23:46;;;;;;;4.75;2.90;;;;;;;;;;5041112;28;20407;-55
2022/01/16 00:26:12;;;;;;;4.75;3.10;;;;;;;;;;5041372;28;20025;-55
2022/01/16 00:28:37;;;;;;;3.75;2.70;;;;;;;;;;5041405;28;20029;-57
2022/01/16 00:31:02;;;;;;;5.22;3.05;;;;;;;;;;5040870;28;20530;-55
2022/01/16 00:33:28;;;;;;;4.13;3.00;;;;;;;;;;5041187;28;20178;-55
2022/01/16 00:35:53;;;;;;;4.28;2.70;;;;;;;;;;5041064;28;20021;-55
2022/01/16 00:38:18;;;;;;;3.90;2.80;;;;;;;;;;5031844;28;20136;-55
2022/01/16 00:40:43;;;;;;;4.17;3.27;;;;;;;;;;5021056;28;20049;-55
2022/01/16 00:43:09;;;;;;;4.00;2.80;;;;;;;;;;5021498;28;20276;-58
2022/01/16 00:45:34;;;;;;;4.60;2.80;;;;;;;;;;5021236;28;20325;-56
2022/01/16 00:48:03;;;;;;;5.03;2.78;;;;;;;;;;5020998;28;21134;-55
2022/01/16 00:50:28;;;;;;;4.07;2.65;;;;;;;;;;5020757;28;20029;-56
2022/01/16 00:52:54;;;;;;;3.55;2.60;;;;;;;;;;5021143;28;20100;-56
2022/01/16 00:55:19;;;;;;;3.78;2.80;;;;;;;;;;5021074;28;20040;-55
2022/01/16 00:57:44;;;;;;;5.20;3.13;;;;;;;;;;5021524;28;20559;-56
2022/01/16 01:00:10;;;;;;;4.33;2.83;;;;;;;;;;5021323;28;20658;-55
2022/01/16 01:02:35;;;;;;;4.13;2.80;;;;;;;;;;5021232;28;20307;-55
2022/01/16 01:05:00;;;;;;;3.75;2.50;;;;;;;;;;5024689;28;20060;-58
2022/01/16 01:07:25;;;;;;;4.07;2.90;;;;;;;;;;5024856;28;20510;-57
2022/01/16 01:09:51;;;;;;;3.83;2.70;;;;;;;;;;5024985;28;20680;-58
2022/01/16 01:12:29;;;;;;;4.13;2.57;;;;;;;;;;5033555;28;20354;-58
2022/01/16 01:15:08;;;;;;;3.90;2.80;;;;;;;;;;5044603;28;20362;-56
2022/01/16 01:17:44;;;;;;;4.85;2.90;;;;;;;;;;5025041;28;20446;-55
2022/01/16 01:20:10;;;;;;;3.58;2.80;;;;;;;;;;5024622;28;20095;-57
2022/01/16 01:22:35;;;;;;;4.38;2.90;;;;;;;;;;5024637;28;20550;-55
2022/01/16 01:25:00;;;;;;;3.60;2.78;;;;;;;;;;5024596;28;20030;-56
2022/01/16 01:27:30;;;;;;;3.88;2.78;;;;;;;;;;5024305;28;20043;-57
2022/01/16 01:30:05;;;;;;;4.32;2.95;;;;;;;;;;5024687;28;20112;-55
2022/01/16 01:32:31;;;;;;;4.18;2.70;;;;;;;;;;5024088;28;20051;-57
2022/01/16 01:34:57;;;;;;;3.60;2.70;;;;;;;;;;5039002;28;20037;-55
2022/01/16 01:37:22;;;;;;;4.00;2.77;;;;;;;;;;5026142;28;20029;-55
2022/01/16 01:39:47;;;;;;;4.63;2.80;;;;;;;;;;5024546;28;20264;-54
2022/01/16 01:42:14;;;;;;;4.33;2.83;;;;;;;;;;5023997;28;20367;-54
2022/01/16 01:52:53;;;;;;;3.72;2.65;;;;;;;;;;5037745;28;20147;-55
2022/01/16 01:55:18;;;;;;;3.88;2.92;;;;;;;;;;5042917;28;20094;-54
2022/01/16 01:57:43;;;;;;;3.75;2.67;;;;;;;;;;5024165;28;20025;-55
2022/01/16 02:00:09;;;;;;;3.65;2.47;;;;;;;;;;5010382;28;20028;-55
2022/01/16 02:02:45;;;;;;;4.15;2.70;;;;;;;;;;5034857;28;20053;-55
2022/01/16 02:05:11;;;;;;;4.15;2.72;;;;;;;;;;5043848;28;20024;-54
2022/01/16 02:07:36;;;;;;;4.27;2.63;;;;;;;;;;5025719;28;20035;-54
2022/01/16 02:10:01;;;;;;;3.17;2.43;;;;;;;;;;5009188;28;20299;-54
2022/01/16 02:12:28;;;;;;;3.60;2.80;;;;;;;;;;5033060;28;20331;-54
2022/01/16 02:15:03;;;;;;;3.40;2.40;;;;;;;;;;5037033;28;20040;-57
2022/01/16 02:28:58;;;;;;;3.90;2.70;;;;;;;;;;5024008;28;20154;-55
2022/01/16 02:31:25;;;;;;;3.78;2.78;;;;;;;;;;5024072;28;20179;-55
2022/01/16 02:36:44;;;;;;;3.97;2.50;;;;;;;;;;5031951;28;20115;-55
2022/01/16 02:39:13;;;;;;;3.88;2.60;;;;;;;;;;5022776;28;20084;-55
2022/01/16 02:41:38;;;;;;;4.13;2.60;;;;;;;;;;5022055;28;20021;-54
2022/01/16 02:44:14;;;;;;;3.30;2.30;;;;;;;;;;5023065;28;20025;-55
2022/01/16 02:46:39;;;;;;;3.55;2.17;;;;;;;;;;5022939;28;20514;-55
2022/01/16 02:49:14;;;;;;;3.70;2.67;;;;;;;;;;5023159;28;20067;-54
2022/01/16 02:51:40;;;;;;;3.65;2.58;;;;;;;;;;5025947;28;20098;-56
2022/01/16 02:54:05;;;;;;;3.47;2.60;;;;;;;;;;5035639;28;20062;-56
2022/01/16 02:56:35;;;;;;;3.20;2.40;;;;;;;;;;5022863;28;20738;-56
2022/01/16 02:59:00;;;;;;;3.47;2.50;;;;;;;;;;5022850;28;20807;-55
2022/01/16 03:01:25;;;;;;;3.63;2.45;;;;;;;;;;5022756;28;20491;-56
2022/01/16 03:03:50;;;;;;;3.78;2.42;;;;;;;;;;5022286;28;20041;-56
2022/01/16 03:06:16;;;;;;;3.45;2.78;;;;;;;;;;5022581;28;20029;-60
2022/01/16 03:08:41;;;;;;;3.55;2.63;;;;;;;;;;5022652;28;20056;-55
2022/01/16 03:11:22;;;;;;;3.33;2.30;;;;;;;;;;5022462;28;20029;-55
2022/01/16 03:13:49;;;;;;;3.30;2.25;;;;;;;;;;5022143;28;20044;-56
2022/01/16 03:16:15;;;;;;;3.47;2.50;;;;;;;;;;5022396;28;20025;-58
2022/01/16 03:24:08;;;;;;;3.45;2.25;;;;;;;;;;5041860;28;20526;-57
2022/01/16 03:26:33;;;;;;;3.50;2.60;;;;;;;;;;5041752;28;20045;-56
2022/01/16 03:28:59;;;;;;;4.00;2.60;;;;;;;;;;5041827;28;20098;-55
2022/01/16 03:31:24;;;;;;;4.23;2.57;;;;;;;;;;5041704;28;20325;-55
2022/01/16 03:33:49;;;;;;;3.73;2.30;;;;;;;;;;5041929;28;20296;-55
2022/01/16 03:36:14;;;;;;;3.35;2.33;;;;;;;;;;5033868;28;20271;-56
2022/01/16 03:38:40;;;;;;;3.50;2.47;;;;;;;;;;5021864;28;20060;-58
2022/01/16 03:41:05;;;;;;;3.83;2.63;;;;;;;;;;5021841;28;20292;-57
2022/01/16 03:43:30;;;;;;;3.83;2.20;;;;;;;;;;5021818;28;20269;-57
2022/01/16 03:45:55;;;;;;;2.97;2.20;;;;;;;;;;5021884;28;20271;-55
2022/01/16 03:48:21;;;;;;;3.83;2.70;;;;;;;;;;5021987;28;20350;-58
2022/01/16 03:50:46;;;;;;;3.47;2.30;;;;;;;;;;5021826;28;20264;-57
2022/01/16 03:53:11;;;;;;;3.65;2.42;;;;;;;;;;5021639;28;20956;-55
2022/01/16 03:55:36;;;;;;;3.53;2.45;;;;;;;;;;5003638;28;21084;-54
2022/01/16 03:58:02;;;;;;;3.33;2.33;;;;;;;;;;5022002;28;20034;-56
2022/01/16 04:00:27;;;;;;;4.43;2.45;;;;;;;;;;5021838;28;20662;-55
2022/01/16 04:02:53;;;;;;;3.47;2.28;;;;;;;;;;5021392;28;20518;-55
2022/01/16 04:05:18;;;;;;;3.38;2.20;;;;;;;;;;5022037;28;20464;-58
2022/01/16 04:07:43;;;;;;;3.70;2.38;;;;;;;;;;5021702;28;20791;-55
2022/01/16 04:10:09;;;;;;;3.33;2.10;;;;;;;;;;5021780;28;20075;-58
2022/01/16 04:12:37;;;;;;;3.67;2.40;;;;;;;;;;5031571;28;20041;-57
2022/01/16 04:17:27;;;;;;;3.13;2.17;;;;;;;;;;5023697;28;20029;-58
2022/01/16 04:19:53;;;;;;;4.90;2.47;;;;;;;;;;5021580;28;20370;-56
2022/01/16 04:22:18;;;;;;;3.58;2.63;;;;;;;;;;5021461;28;20272;-56
2022/01/16 04:24:44;;;;;;;3.20;2.28;;;;;;;;;;5021538;28;20037;-54
2022/01/16 04:27:10;;;;;;;3.28;2.17;;;;;;;;;;5021546;28;20033;-58
2022/01/16 04:29:36;;;;;;;3.75;2.33;;;;;;;;;;5021203;28;20029;-56
2022/01/16 04:32:01;;;;;;;3.05;2.25;;;;;;;;;;5027099;28;20029;-56
2022/01/16 04:34:27;;;;;;;3.78;2.25;;;;;;;;;;5041158;28;20395;-56
2022/01/16 04:36:52;;;;;;;3.20;2.10;;;;;;;;;;5028442;28;20044;-56
2022/01/16 04:39:20;;;;;;;3.00;1.93;;;;;;;;;;5023284;28;20719;-56
2022/01/16 04:44:29;;;;;;;3.05;2.28;;;;;;;;;;5025247;28;20108;-55
2022/01/16 04:46:54;;;;;;;3.60;2.38;;;;;;;;;;5025292;28;20179;-56
2022/01/16 04:49:19;;;;;;;3.63;2.33;;;;;;;;;;5024959;28;20021;-55
2022/01/16 04:51:45;;;;;;;3.22;2.00;;;;;;;;;;5027874;28;20609;-56
2022/01/16 04:54:10;;;;;;;3.50;2.35;;;;;;;;;;5026652;28;20786;-56
2022/01/16 04:56:35;;;;;;;3.45;2.22;;;;;;;;;;5034750;28;20017;-55
2022/01/16 04:59:00;;;;;;;2.90;2.27;;;;;;;;;;5006772;28;20065;-57
2022/01/16 05:01:26;;;;;;;3.30;2.55;;;;;;;;;;5024502;28;20647;-55
2022/01/16 05:03:51;;;;;;;3.00;2.13;;;;;;;;;;5024379;28;20320;-56
2022/01/16 05:06:16;;;;;;;2.90;2.13;;;;;;;;;;5024993;28;20025;-57
2022/01/16 05:08:42;;;;;;;3.22;2.00;;;;;;;;;;5024907;28;20029;-56
2022/01/16 05:11:08;;;;;;;3.22;2.30;;;;;;;;;;5024674;28;20120;-57
2022/01/16 05:18:56;;;;;;;3.13;2.15;;;;;;;;;;5011975;28;20404;-55
2022/01/16 05:21:21;;;;;;;3.00;2.30;;;;;;;;;;5024325;28;20095;-54
2022/01/16 05:23:47;;;;;;;2.92;1.98;;;;;;;;;;5024448;28;20022;-56
2022/01/16 05:26:13;;;;;;;4.00;2.28;;;;;;;;;;5024649;28;20045;-55
2022/01/16 05:28:38;;;;;;;3.25;2.50;;;;;;;;;;5024456;28;20536;-55
2022/01/16 05:31:03;;;;;;;2.90;2.10;;;;;;;;;;5023915;28;20018;-55
2022/01/16 05:33:29;;;;;;;3.08;2.10;;;;;;;;;;5020223;28;20292;-55
2022/01/16 05:35:54;;;;;;;2.93;2.03;;;;;;;;;;5024098;28;20024;-54
2022/01/16 05:38:19;;;;;;;2.65;1.90;;;;;;;;;;5023941;28;20308;-55
2022/01/16 05:40:45;;;;;;;3.05;2.30;;;;;;;;;;5024164;28;20025;-55
2022/01/16 05:43:10;;;;;;;2.70;2.23;;;;;;;;;;5024372;28;20025;-55
2022/01/16 05:45:35;;;;;;;3.43;2.40;;;;;;;;;;5024177;28;20774;-55
2022/01/16 05:48:00;;;;;;;3.53;2.28;;;;;;;;;;5036268;28;20350;-53
2022/01/16 05:50:26;;;;;;;3.15;2.17;;;;;;;;;;5040058;28;20021;-54
2022/01/16 05:52:51;;;;;;;2.90;2.10;;;;;;;;;;5041355;28;20068;-54
2022/01/16 05:55:16;;;;;;;3.33;2.38;;;;;;;;;;5023819;28;20290;-54
2022/01/16 05:57:42;;;;;;;2.65;2.10;;;;;;;;;;5040889;28;20073;-55
2022/01/16 06:00:08;;;;;;;3.17;2.30;;;;;;;;;;5038614;28;20083;-55
2022/01/16 06:02:33;;;;;;;2.72;2.00;;;;;;;;;;5041111;28;20730;-54
2022/01/16 06:04:58;;;;;;;3.22;2.13;;;;;;;;;;5023410;28;20204;-54
2022/01/16 06:07:24;;;;;;;2.92;1.98;;;;;;;;;;5041309;28;20025;-54
2022/01/16 06:09:49;;;;;;;2.83;2.10;;;;;;;;;;5041472;28;20114;-57
2022/01/16 06:12:14;;;;;;;3.28;2.40;;;;;;;;;;5041306;28;20052;-54
2022/01/16 06:14:39;;;;;;;3.33;2.43;;;;;;;;;;5041507;28;20029;-57
2022/01/16 06:17:05;;;;;;;3.50;2.40;;;;;;;;;;5041213;28;20383;-57
2022/01/16 06:19:30;;;;;;;3.03;2.13;;;;;;;;;;5037104;28;20263;-56
2022/01/16 06:21:55;;;;;;;3.22;2.40;;;;;;;;;;5039921;28;20263;-54
2022/01/16 06:24:21;;;;;;;3.13;2.30;;;;;;;;;;5035938;28;20012;-56
2022/01/16 06:26:46;;;;;;;2.80;2.03;;;;;;;;;;5038673;28;20021;-54
2022/01/16 06:29:11;;;;;;;3.35;2.33;;;;;;;;;;5028270;28;20018;-54
2022/01/16 06:31:36;;;;;;;2.93;2.10;;;;;;;;;;5039571;28;20086;-54
2022/01/16 06:34:04;;;;;;;2.72;2.25;;;;;;;;;;5030424;28;20358;-54
2022/01/16 06:36:30;;;;;;;3.47;2.20;;;;;;;;;;5033301;28;20034;-53
2022/01/16 06:38:55;;;;;;;3.20;2.30;;;;;;;;;;5028088;28;20041;-54
2022/01/16 06:41:21;;;;;;;2.72;2.00;;;;;;;;;;5030648;28;20279;-54
2022/01/16 06:43:46;;;;;;;3.90;2.00;;;;;;;;;;5038715;28;20025;-54
2022/01/16 06:46:11;;;;;;;2.53;2.08;;;;;;;;;;5039651;28;20268;-54
2022/01/16 06:48:37;;;;;;;2.77;2.10;;;;;;;;;;5032649;28;20415;-53
2022/01/16 06:51:02;;;;;;;3.80;2.15;;;;;;;;;;5042688;28;20295;-51
2022/01/16 06:53:27;;;;;;;2.70;2.08;;;;;;;;;;5025721;28;20130;-53
2022/01/16 06:55:53;;;;;;;3.15;2.40;;;;;;;;;;5022518;28;20541;-53
2022/01/16 06:58:18;;;;;;;2.53;1.77;;;;;;;;;;5022804;28;20025;-53
2022/01/16 07:00:43;;;;;;;2.67;2.05;;;;;;;;;;5022597;28;20031;-55
2022/01/16 07:03:08;;;;;;;4.43;2.10;;;;;;;;;;5022341;28;20063;-53
2022/01/16 07:05:34;;;;;;;3.22;1.92;;;;;;;;;;5022269;28;20044;-54
2022/01/16 07:07:59;;;;;;;3.30;2.20;;;;;;;;;;5004930;28;20029;-55
2022/01/16 07:10:24;;;;;;;7.38;5.07;;;;;;;;;;5022287;28;20299;-55
2022/01/16 07:12:50;;;;;;;10.48;7.20;;;;;;;;;;5022312;28;20052;-56
2022/01/16 07:15:15;;;;;;;15.15;10.40;;;;;;;;;;5027076;28;20044;-56
2022/01/16 07:17:40;;;;;;;15.30;11.25;;;;;;;;;;5028360;28;20533;-56
2022/01/16 07:20:06;;;;;;;14.73;10.77;;;;;;;;;;5029227;28;20023;-56
2022/01/16 07:22:31;;;;;;;14.05;10.32;;;;;;;;;;5026109;28;20307;-54
2022/01/16 07:24:56;;;;;;;15.73;9.50;;;;;;;;;;5034444;28;20024;-55
2022/01/16 07:27:21;;;;;;;13.97;8.83;;;;;;;;;;5026866;28;20271;-54
2022/01/16 07:29:47;;;;;;;11.82;8.73;;;;;;;;;;5027900;28;20975;-56
2022/01/16 07:32:12;;;;;;;11.65;8.68;;;;;;;;;;5023100;28;20163;-56
2022/01/16 07:34:37;;;;;;;11.60;8.13;;;;;;;;;;5023426;28;20024;-55
2022/01/16 07:37:03;;;;;;;9.70;7.87;;;;;;;;;;5021932;28;20342;-55
2022/01/16 07:39:28;;;;;;;10.52;7.93;;;;;;;;;;5021912;28;20275;-57
2022/01/16 07:41:53;;;;;;;11.25;7.28;;;;;;;;;;5021698;28;20104;-55
2022/01/16 07:44:18;;;;;;;9.10;7.00;;;;;;;;;;5021954;28;20023;-56
2022/01/16 07:46:44;;;;;;;9.73;7.70;;;;;;;;;;5021899;28;20360;-55
2022/01/16 07:49:09;;;;;;;8.83;6.73;;;;;;;;;;5022236;28;20261;-53
2022/01/16 07:51:34;;;;;;;9.23;7.00;;;;;;;;;;5021353;28;20757;-53
2022/01/16 07:53:59;;;;;;;9.68;6.75;;;;;;;;;;5025982;28;20936;-54
2022/01/16 07:56:25;;;;;;;8.87;7.00;;;;;;;;;;5023045;28;20025;-53
2022/01/16 07:58:50;;;;;;;8.37;6.50;;;;;;;;;;5031859;28;20305;-54
2022/01/16 08:01:15;;;;;;;8.77;6.20;;;;;;;;;;5027305;28;20925;-53
2022/01/16 08:03:40;;;;;;;8.50;6.30;;;;;;;;;;5021584;28;20292;-54
2022/01/16 08:06:06;;;;;;;8.07;6.25;;;;;;;;;;5036546;28;20271;-55
2022/01/16 08:08:31;;;;;;;7.72;5.80;;;;;;;;;;5021651;28;20025;-55
2022/01/16 08:10:56;;;;;;;8.27;6.30;;;;;;;;;;5019908;28;20025;-55
2022/01/16 08:13:21;;;;;;;7.37;5.73;;;;;;;;;;5039809;28;20785;-54
2022/01/16 08:15:47;;;;;;;7.43;5.60;;;;;;;;;;5039069;28;20351;-54
2022/01/16 08:18:12;;;;;;;7.10;5.60;;;;;;;;;;5033222;28;20029;-55
2022/01/16 08:20:37;;;;;;;7.20;5.60;;;;;;;;;;5028589;28;20910;-55
2022/01/16 08:23:02;;;;;;;6.80;5.40;;;;;;;;;;5026696;28;20354;-55
2022/01/16 08:25:28;;;;;;;7.28;5.85;;;;;;;;;;5029577;28;20275;-54
2022/01/16 08:27:53;;;;;;;7.68;5.65;;;;;;;;;;5036533;28;20029;-52
2022/01/16 08:30:18;;;;;;;6.43;4.97;;;;;;;;;;5032916;28;20032;-54
2022/01/16 08:32:44;;;;;;;8.38;5.80;;;;;;;;;;5028055;28;21134;-55
2022/01/16 08:35:09;;;;;;;6.40;5.27;;;;;;;;;;5038539;28;20025;-54
2022/01/16 08:37:35;;;;;;;6.38;5.07;;;;;;;;;;5035717;28;20303;-56
2022/01/16 08:40:00;;;;;;;6.90;5.50;;;;;;;;;;5040656;28;20024;-57
2022/01/16 08:42:25;;;;;;;6.50;4.83;;;;;;;;;;5042006;28;20306;-55
2022/01/16 08:44:50;;;;;;;6.10;4.83;;;;;;;;;;5034155;28;20572;-54
2022/01/16 08:47:15;;;;;;;6.50;5.20;;;;;;;;;;5027270;28;20295;-55
2022/01/16 08:52:21;;;;;;;6.80;5.13;;;;;;;;;;5033766;22;20057;-55
2022/01/16 08:54:47;;;;;;;7.60;5.30;;;;;;;;;;5051396;28;20498;-55
2022/01/16 08:57:12;;;;;;;5.97;4.90;;;;;;;;;;5059587;28;20027;-56
2022/01/16 08:59:37;;;;;;;6.63;5.17;;;;;;;;;;5062958;28;20028;-56
2022/01/16 09:02:02;;;;;;;6.80;4.77;;;;;;;;;;5064996;28;20021;-58
2022/01/16 09:04:28;;;;;;;6.25;5.00;;;;;;;;;;5065417;28;20031;-55
2022/01/16 09:06:53;;;;;;;7.07;4.97;;;;;;;;;;5065475;28;20028;-56
2022/01/16 09:09:18;;;;;;;6.13;4.50;;;;;;;;;;5064616;28;20444;-53
2022/01/16 09:11:43;;;;;;;7.13;5.07;;;;;;;;;;5063591;28;20482;-56
2022/01/16 09:14:09;;;;;;;6.33;4.63;;;;;;;;;;5064980;28;20286;-55
2022/01/16 09:16:34;;;;;;;5.97;4.67;;;;;;;;;;5065207;28;20036;-54
2022/01/16 09:18:59;;;;;;;5.88;4.88;;;;;;;;;;5065332;28;20028;-58
2022/01/16 09:21:24;;;;;;;6.00;4.67;;;;;;;;;;5065348;28;20536;-55
2022/01/16 09:23:50;;;;;;;6.33;4.77;;;;;;;;;;5065235;28;20036;-53
2022/01/16 09:26:15;;;;;;;7.15;4.82;;;;;;;;;;5064837;28;20398;-53
2022/01/16 09:28:40;;;;;;;6.88;4.85;;;;;;;;;;5064895;28;20402;-54
2022/01/16 09:31:06;;;;;;;5.72;4.60;;;;;;;;;;5064848;28;20032;-53
2022/01/16 09:33:31;;;;;;;6.20;4.63;;;;;;;;;;5064471;28;20441;-53
2022/01/16 09:35:56;;;;;;;5.20;4.68;;;;;;;;;;5064862;28;20012;-57
2022/01/16 09:38:22;;;;;;;6.00;4.67;;;;;;;;;;5064843;28;20323;-53
2022/01/16 09:40:47;;;;;;;5.55;4.45;;;;;;;;;;5064612;28;20629;-55
2022/01/16 09:43:13;;;;;;;6.73;4.77;;;;;;;;;;5064765;28;20095;-53
2022/01/16 09:45:38;;;;;;;6.10;4.50;;;;;;;;;;5013231;28;20290;-58
2022/01/16 09:48:04;;;;;;;6.23;4.80;;;;;;;;;;5043047;28;20052;-53
2022/01/16 09:50:29;;;;;;;6.07;4.45;;;;;;;;;;5046148;28;20268;-55
2022/01/16 09:52:54;;;;;;;5.20;4.30;;;;;;;;;;5046307;28;20484;-56
2022/01/16 09:55:20;;;;;;;5.78;4.25;;;;;;;;;;5046701;28;20280;-54
2022/01/16 09:57:46;;;;;;;5.72;4.30;;;;;;;;;;5061862;28;20145;-57
2022/01/16 10:00:12;;;;;;;6.97;4.68;;;;;;;;;;5063669;28;20028;-55
2022/01/16 10:02:38;;;;;;;5.78;4.35;;;;;;;;;;5063693;28;20584;-53
2022/01/16 10:05:20;;;;;;;6.05;4.43;;;;;;;;;;5063578;28;20103;-56
2022/01/16 10:07:45;;;;;;;6.75;4.22;;;;;;;;;;5063592;28;20043;-57
2022/01/16 10:10:12;;;;;;;5.77;4.03;;;;;;;;;;5063788;28;20479;-57
2022/01/16 10:12:45;;;;;;;6.03;4.35;;;;;;;;;;5063943;28;20036;-57
2022/01/16 10:15:14;;;;;;;8.13;4.72;;;;;;;;;;5064097;28;20067;-58
2022/01/16 10:17:46;;;;;;;6.83;4.73;;;;;;;;;;5063891;28;20457;-58
2022/01/16 10:20:12;;;;;;;6.43;4.43;;;;;;;;;;5063676;28;20479;-56
2022/01/16 10:22:42;;;;;;;5.50;4.40;;;;;;;;;;5063906;28;20048;-57
2022/01/16 10:25:08;;;;;;;5.85;3.97;;;;;;;;;;5064014;28;20025;-55
2022/01/16 10:27:33;;;;;;;5.40;4.45;;;;;;;;;;5063808;28;20058;-56
2022/01/16 10:30:01;;;;;;;6.25;4.32;;;;;;;;;;5063495;28;20025;-56
2022/01/16 10:32:27;;;;;;;5.75;4.43;;;;;;;;;;5063694;28;20036;-54
2022/01/16 10:34:53;;;;;;;5.30;3.83;;;;;;;;;;5063312;28;20025;-56
2022/01/16 10:37:26;;;;;;;5.97;4.15;;;;;;;;;;5048788;28;20017;-54
2022/01/16 10:39:52;;;;;;;6.38;4.82;;;;;;;;;;5043633;28;20517;-54
2022/01/16 10:42:17;;;;;;;6.13;4.38;;;;;;;;;;5048363;28;20020;-53
2022/01/16 10:44:42;;;;;;;5.18;4.10;;;;;;;;;;5063605;28;20043;-55
2022/01/16 10:47:26;;;;;;;5.67;4.23;;;;;;;;;;5063505;28;20020;-54
2022/01/16 10:50:17;;;;;;;6.82;4.30;;;;;;;;;;5063126;28;20278;-57
2022/01/16 10:52:46;;;;;;;5.72;4.20;;;;;;;;;;5020501;28;20044;-55
2022/01/16 10:55:11;;;;;;;5.13;4.03;;;;;;;;;;5055733;28;20032;-56
2022/01/16 10:57:36;;;;;;;5.75;4.28;;;;;;;;;;5063310;28;20025;-55
2022/01/16 11:00:05;;;;;;;5.10;4.00;;;;;;;;;;5057435;28;20025;-54
2022/01/16 11:02:31;;;;;;;5.13;4.30;;;;;;;;;;5050820;28;20278;-55
2022/01/16 11:05:06;;;;;;;5.47;4.27;;;;;;;;;;5062642;28;20032;-55
2022/01/16 11:07:31;;;;;;;4.68;3.70;;;;;;;;;;5062984;28;20282;-58
2022/01/16 11:09:56;;;;;;;5.83;4.40;;;;;;;;;;5062671;28;20081;-54
2022/01/16 11:12:21;;;;;;;5.90;4.57;;;;;;;;;;5056387;28;20307;-53
2022/01/16 11:14:47;;;;;;;6.13;4.50;;;;;;;;;;5042182;28;20017;-56
2022/01/16 11:17:12;;;;;;;6.40;4.10;;;;;;;;;;5033975;28;20115;-55
2022/01/16 11:19:37;;;;;;;5.73;4.23;;;;;;;;;;5026584;28;20286;-56
2022/01/16 11:22:03;;;;;;;5.45;4.03;;;;;;;;;;5043655;28;20020;-53
2022/01/16 11:24:47;;;;;;;7.22;4.68;;;;;;;;;;5041459;28;20036;-53
2022/01/16 11:27:14;;;;;;;5.35;4.10;;;;;;;;;;5055155;28;20517;-54
2022/01/16 11:29:39;;;;;;;5.80;4.30;;;;;;;;;;5062687;28;20024;-54
2022/01/16 11:32:05;;;;;;;5.90;4.37;;;;;;;;;;5044113;28;20020;-55
2022/01/16 11:34:30;;;;;;;5.70;4.32;;;;;;;;;;5044526;28;20029;-57
2022/01/16 11:36:55;;;;;;;5.47;3.70;;;;;;;;;;5062817;28;20055;-55
2022/01/16 11:39:21;;;;;;;5.17;4.23;;;;;;;;;;5062778;28;20146;-54
2022/01/16 11:41:50;;;;;;;5.50;4.00;;;;;;;;;;5062187;28;20323;-55
2022/01/16 11:44:22;;;;;;;5.23;3.97;;;;;;;;;;5062561;28;20033;-55
2022/01/16 11:46:51;;;;;;;4.85;3.70;;;;;;;;;;5062585;28;20266;-55
2022/01/16 11:49:19;;;;;;;4.90;4.20;;;;;;;;;;5062674;28;20028;-55
2022/01/16 11:51:51;;;;;;;5.32;3.85;;;;;;;;;;5030515;28;20361;-56
2022/01/16 11:54:19;;;;;;;4.97;4.00;;;;;;;;;;5025799;28;20033;-56
2022/01/16 11:56:44;;;;;;;4.72;3.80;;;;;;;;;;5050828;28;20024;-55
2022/01/16 11:59:12;;;;;;;4.50;3.77;;;;;;;;;;5050312;28;20507;-54
2022/01/16 12:01:51;;;;;;;5.35;3.75;;;;;;;;;;5042152;28;20033;-57
2022/01/16 12:04:32;;;;;;;5.53;4.07;;;;;;;;;;5027003;28;20110;-55
2022/01/16 12:06:57;;;;;;;5.15;3.88;;;;;;;;;;5042232;28;20024;-55
2022/01/16 12:09:46;;;;;;;5.73;3.93;;;;;;;;;;5042000;28;20098;-55
2022/01/16 12:12:11;;;;;;;4.55;3.60;;;;;;;;;;5038181;28;20032;-54
2022/01/16 12:14:48;;;;;;;4.60;3.77;;;;;;;;;;5029280;28;20033;-58
2022/01/16 12:17:32;;;;;;;5.30;3.72;;;;;;;;;;5054018;28;20021;-55
2022/01/16 12:19:58;;;;;;;4.65;3.50;;;;;;;;;;5043854;28;20356;-54
2022/01/16 12:22:44;;;;;;;5.70;4.05;;;;;;;;;;5040604;28;20497;-55
2022/01/16 12:25:18;;;;;;;4.95;3.78;;;;;;;;;;5042304;28;20033;-54
2022/01/16 12:27:45;;;;;;;4.38;3.75;;;;;;;;;;5041819;28;20144;-54
2022/01/16 12:30:32;;;;;;;5.45;3.55;;;;;;;;;;5041705;28;20029;-56
2022/01/16 12:33:15;;;;;;;5.50;4.15;;;;;;;;;;5030311;28;20455;-52
2022/01/16 12:35:41;;;;;;;6.05;4.15;;;;;;;;;;5037808;28;20029;-55
2022/01/16 12:38:06;;;;;;;4.47;3.70;;;;;;;;;;5058594;28;20517;-56
2022/01/16 12:40:31;;;;;;;6.00;4.00;;;;;;;;;;5042076;28;20406;-52
2022/01/16 12:42:56;;;;;;;4.57;3.80;;;;;;;;;;5042156;28;20329;-54
2022/01/16 12:45:22;;;;;;;5.20;3.80;;;;;;;;;;5041914;28;20032;-57
2022/01/16 12:47:47;;;;;;;4.63;3.70;;;;;;;;;;5041906;28;20116;-60
2022/01/16 12:50:13;;;;;;;4.20;3.55;;;;;;;;;;5040568;28;20108;-55
2022/01/16 12:52:45;;;;;;;4.63;3.63;;;;;;;;;;4999843;28;20049;-53
2022/01/16 12:55:11;;;;;;;4.32;3.30;;;;;;;;;;5033173;28;20414;-54
2022/01/16 12:57:36;;;;;;;3.97;3.40;;;;;;;;;;5056499;28;20036;-55
2022/01/16 13:00:08;;;;;;;5.27;3.80;;;;;;;;;;5044739;28;20025;-53
2022/01/16 13:02:33;;;;;;;4.22;3.60;;;;;;;;;;5045599;28;20633;-58
2022/01/16 13:04:59;;;;;;;5.45;3.95;;;;;;;;;;5045316;28;20024;-57
2022/01/16 13:07:24;;;;;;;5.33;3.93;;;;;;;;;;5045438;28;20486;-59
2022/01/16 13:09:49;;;;;;;9.23;4.13;;;;;;;;;;5024264;28;20313;-58
2022/01/16 13:12:14;;;;;;;4.73;3.73;;;;;;;;;;5041337;28;20363;-57
2022/01/16 13:14:41;;;;;;;5.45;4.10;;;;;;;;;;5032385;28;20060;-59
2022/01/16 13:17:08;;;;;;;4.22;3.40;;;;;;;;;;5055855;28;20108;-57
2022/01/16 13:19:57;;;;;;;4.70;3.50;;;;;;;;;;5050514;28;20541;-58
2022/01/16 13:22:23;;;;;;;4.47;3.50;;;;;;;;;;5044841;28;20040;-59
2022/01/16 13:25:03;;;;;;;5.70;4.25;;;;;;;;;;5044858;28;20022;-60
2022/01/16 13:27:32;;;;;;;4.43;3.47;;;;;;;;;;5045096;28;20514;-59
2022/01/16 13:30:01;;;;;;;5.00;3.40;;;;;;;;;;5044770;28;20017;-60
2022/01/16 13:32:28;;;;;;;5.32;4.18;;;;;;;;;;5039393;28;20064;-53
2022/01/16 13:34:54;;;;;;;4.70;4.00;;;;;;;;;;5033960;28;20029;-55
2022/01/16 13:37:26;;;;;;;4.63;3.60;;;;;;;;;;5057019;28;20503;-58
2022/01/16 13:40:10;;;;;;;4.40;3.50;;;;;;;;;;5029921;28;20054;-56
2022/01/16 13:42:40;;;;;;;4.40;3.80;;;;;;;;;;5044175;28;20013;-53
2022/01/16 13:45:24;;;;;;;4.88;3.90;;;;;;;;;;5044393;28;20087;-54
2022/01/16 13:47:58;;;;;;;4.55;3.30;;;;;;;;;;5043699;28;20017;-57
2022/01/16 13:50:25;;;;;;;4.70;3.40;;;;;;;;;;5043742;28;20382;-53
2022/01/16 13:53:02;;;;;;;4.82;3.70;;;;;;;;;;5035443;28;20040;-53
2022/01/16 13:55:27;;;;;;;4.50;4.00;;;;;;;;;;5037532;28;20072;-58
2022/01/16 13:57:53;;;;;;;4.72;3.53;;;;;;;;;;5060148;28;20471;-52
2022/01/16 14:00:19;;;;;;;5.05;3.60;;;;;;;;;;5044134;28;20032;-53
2022/01/16 14:02:45;;;;;;;5.22;3.83;;;;;;;;;;5043915;28;20075;-55
2022/01/16 14:05:20;;;;;;;4.93;3.70;;;;;;;;;;5043861;28;20502;-53
2022/01/16 14:07:45;;;;;;;4.70;3.85;;;;;;;;;;5044174;28;20389;-54
2022/01/16 14:10:10;;;;;;;4.60;3.50;;;;;;;;;;5043284;28;20120;-54
2022/01/16 14:12:36;;;;;;;4.40;3.80;;;;;;;;;;5036586;28;20128;-52
2022/01/16 14:15:10;;;;;;;4.50;3.53;;;;;;;;;;5033668;28;20290;-53
2022/01/16 14:17:42;;;;;;;5.22;3.92;;;;;;;;;;5058552;28;20020;-62
2022/01/16 14:20:24;;;;;;;4.30;3.70;;;;;;;;;;5044478;28;20082;-56
2022/01/16 14:22:50;;;;;;;5.35;3.78;;;;;;;;;;5043738;28;20036;-54
2022/01/16 14:25:15;;;;;;;5.25;3.80;;;;;;;;;;5009152;28;20037;-54
2022/01/16 14:27:40;;;;;;;5.20;3.90;;;;;;;;;;5043347;28;20144;-53
2022/01/16 14:30:06;;;;;;;5.23;3.90;;;;;;;;;;5043328;28;20267;-53
2022/01/16 14:32:32;;;;;;;5.55;3.45;;;;;;;;;;5037690;28;20041;-54
2022/01/16 14:34:59;;;;;;;4.35;3.40;;;;;;;;;;5032381;28;20053;-56
2022/01/16 14:37:25;;;;;;;4.97;3.70;;;;;;;;;;5038557;28;20028;-54
2022/01/16 14:39:50;;;;;;;5.40;3.72;;;;;;;;;;5046715;28;20021;-54
2022/01/16 14:42:17;;;;;;;7.88;4.07;;;;;;;;;;5038084;28;20023;-53
2022/01/16 14:44:43;;;;;;;4.95;3.50;;;;;;;;;;5024751;28;20052;-57
2022/01/16 14:47:11;;;;;;;4.78;3.60;;;;;;;;;;5024573;28;20109;-57
2022/01/16 14:49:37;;;;;;;7.00;3.80;;;;;;;;;;5024682;28;20534;-59
2022/01/16 14:52:02;;;;;;;6.65;3.65;;;;;;;;;;5023705;28;20069;-55
2022/01/16 14:54:27;;;;;;;5.40;3.58;;;;;;;;;;5024172;28;20078;-55
2022/01/16 14:56:52;;;;;;;5.73;4.10;;;;;;;;;;5026172;28;20310;-56
2022/01/16 14:59:18;;;;;;;4.87;3.60;;;;;;;;;;5024312;28;20021;-57
2022/01/16 15:01:43;;;;;;;7.07;3.88;;;;;;;;;;5024017;28;20502;-58
2022/01/16 15:04:09;;;;;;;6.10;3.78;;;;;;;;;;5025119;28;20029;-58
2022/01/16 15:06:34;;;;;;;7.50;4.00;;;;;;;;;;5023558;28;20018;-56
2022/01/16 15:09:00;;;;;;;4.63;3.47;;;;;;;;;;5030784;28;20082;-54
2022/01/16 15:11:26;;;;;;;4.45;3.42;;;;;;;;;;5042571;28;20414;-55
2022/01/16 15:13:52;;;;;;;4.93;3.92;;;;;;;;;;5027062;28;20045;-57
2022/01/16 15:16:24;;;;;;;6.68;4.22;;;;;;;;;;5039362;28;20081;-55
2022/01/16 15:18:51;;;;;;;5.72;4.05;;;;;;;;;;5039331;28;20033;-55
2022/01/16 15:21:16;;;;;;;6.30;3.78;;;;;;;;;;5041463;28;20161;-53
2022/01/16 15:23:42;;;;;;;7.60;4.00;;;;;;;;;;5018105;28;20029;-55
2022/01/16 15:26:07;;;;;;;6.23;4.10;;;;;;;;;;5042054;28;20064;-54